createdAt,value
2023-05-15T00:02:22.568Z,60.33
2023-05-15T00:04:55.739Z,60.47
2023-05-15T00:07:27.698Z,60.61
2023-05-15T00:09:59.933Z,60.91
2023-05-15T00:12:33.741Z,60.98
2023-05-15T00:15:06.313Z,61.03
2023-05-15T00:17:38.400Z,61.30
2023-05-15T00:20:10.866Z,61.43
2023-05-15T00:22:43.074Z,61.58
2023-05-15T00:25:15.347Z,61.64
2023-05-15T00:27:48.890Z,61.74
2023-05-15T00:30:21.467Z,61.95
2023-05-15T00:32:53.665Z,61.92
2023-05-15T00:35:26.230Z,62.01
2023-05-15T00:37:58.754Z,62.10
2023-05-15T00:40:32.213Z,62.77
2023-05-15T00:43:05.582Z,62.68
2023-05-15T00:45:41.432Z,62.81
2023-05-15T00:48:14.041Z,62.94
2023-05-15T00:50:46.233Z,63.08
2023-05-15T00:53:19.970Z,63.17
2023-05-15T00:55:53.150Z,63.59
2023-05-15T00:58:27.073Z,63.64
2023-05-15T01:00:59.229Z,63.60
2023-05-15T01:03:31.821Z,63.75
2023-05-15T01:06:05.081Z,63.88
2023-05-15T01:08:43.975Z,64.12
2023-05-15T01:11:17.821Z,64.07
2023-05-15T01:13:50.403Z,64.23
2023-05-15T01:16:23.535Z,64.30
2023-05-15T01:18:55.965Z,64.48
2023-05-15T01:21:38.470Z,64.61
2023-05-15T01:24:44.574Z,64.64
2023-05-15T01:27:31.426Z,64.70
2023-05-15T01:30:09.428Z,64.83
2023-05-15T01:32:44.538Z,64.85
2023-05-15T01:35:20.060Z,64.87
2023-05-15T01:37:55.273Z,64.95
2023-05-15T01:40:29.170Z,65.13
2023-05-15T01:43:04.236Z,65.10
2023-05-15T01:45:38.369Z,65.12
2023-05-15T01:48:11.633Z,65.12
2023-05-15T01:50:47.074Z,64.96
2023-05-15T01:53:21.450Z,64.92
2023-05-15T01:55:54.397Z,64.90
2023-05-15T01:58:28.685Z,64.84
2023-05-15T02:01:02.553Z,64.93
2023-05-15T02:03:35.246Z,64.86
2023-05-15T02:06:08.554Z,64.76
2023-05-15T02:08:42.811Z,64.61
2023-05-15T02:11:16.188Z,64.48
2023-05-15T02:13:51.520Z,64.18
2023-05-15T02:16:24.301Z,64.03
2023-05-15T02:18:57.175Z,63.87
2023-05-15T02:21:30.821Z,63.45
2023-05-15T02:24:02.968Z,63.24
2023-05-15T02:26:40.740Z,63.11
2023-05-15T02:29:24.697Z,63.03
2023-05-15T02:32:06.020Z,62.92
2023-05-15T02:34:41.146Z,62.68
2023-05-15T02:37:18.905Z,62.32
2023-05-15T02:39:53.919Z,62.17
2023-05-15T02:42:27.743Z,62.01
2023-05-15T02:45:00.960Z,61.76
2023-05-15T02:47:36.270Z,61.36
2023-05-15T02:50:09.052Z,61.46
2023-05-15T02:52:41.390Z,61.13
2023-05-15T02:55:13.772Z,60.58
2023-05-15T02:57:45.974Z,60.42
2023-05-15T03:00:18.764Z,60.31
2023-05-15T03:02:51.168Z,60.38
2023-05-15T03:05:23.824Z,60.28
2023-05-15T03:07:56.024Z,59.80
2023-05-15T03:10:28.269Z,59.72
2023-05-15T03:13:00.589Z,59.06
2023-05-15T03:15:32.775Z,58.85
2023-05-15T03:18:05.084Z,58.47
2023-05-15T03:20:37.357Z,58.25
2023-05-15T03:23:09.496Z,57.76
2023-05-15T03:25:41.662Z,57.75
2023-05-15T03:28:14.390Z,57.65
2023-05-15T03:30:46.890Z,57.16
2023-05-15T03:33:19.311Z,56.73
2023-05-15T03:35:52.558Z,56.20
2023-05-15T03:38:24.668Z,55.60
2023-05-15T03:40:57.242Z,55.07
2023-05-15T03:43:29.644Z,54.78
2023-05-15T03:46:02.039Z,54.96
2023-05-15T03:48:34.957Z,54.74
2023-05-15T03:51:09.529Z,54.54
2023-05-15T03:53:41.982Z,54.67
2023-05-15T03:56:14.040Z,54.71
2023-05-15T03:58:46.509Z,54.18
2023-05-15T04:01:19.761Z,53.92
2023-05-15T04:03:51.999Z,53.67
2023-05-15T04:06:24.286Z,53.74
2023-05-15T04:08:56.507Z,53.14
2023-05-15T04:11:29.150Z,52.27
2023-05-15T04:14:01.750Z,52.51
2023-05-15T04:16:34.145Z,51.81
2023-05-15T04:19:06.602Z,51.77
2023-05-15T04:21:38.809Z,51.38
2023-05-15T04:24:11.267Z,50.80
2023-05-15T04:26:43.703Z,50.73
2023-05-15T04:29:16.231Z,50.22
2023-05-15T04:31:48.572Z,49.76
2023-05-15T04:34:21.358Z,49.36
2023-05-15T04:36:53.695Z,49.21
2023-05-15T04:39:25.787Z,48.68
2023-05-15T04:42:10.589Z,48.90
2023-05-15T04:44:43.103Z,48.62
2023-05-15T04:47:15.364Z,48.00
2023-05-15T04:49:49.481Z,48.06
2023-05-15T04:52:21.921Z,47.87
2023-05-15T04:54:56.274Z,47.11
2023-05-15T04:57:28.143Z,46.96
2023-05-15T05:00:00.350Z,47.86
2023-05-15T05:02:34.464Z,46.42
2023-05-15T05:05:07.730Z,46.01
2023-05-15T05:07:41.070Z,45.96
2023-05-15T05:10:13.740Z,45.67
2023-05-15T05:12:46.057Z,46.01
2023-05-15T05:15:17.997Z,45.82
2023-05-15T05:17:50.372Z,45.62
2023-05-15T05:20:23.405Z,45.62
2023-05-15T05:22:55.927Z,45.25
2023-05-15T05:25:29.993Z,45.25
2023-05-15T05:28:02.677Z,45.06
2023-05-15T05:30:34.841Z,44.31
2023-05-15T05:33:07.925Z,44.19
2023-05-15T05:35:40.353Z,44.28
2023-05-15T05:38:12.561Z,43.94
2023-05-15T05:40:45.104Z,43.68
2023-05-15T05:43:17.328Z,43.08
2023-05-15T05:45:50.004Z,43.68
2023-05-15T05:48:22.310Z,43.61
2023-05-15T05:50:54.688Z,43.91
2023-05-15T06:15:20.579Z,42.87
2023-05-15T06:17:53.298Z,41.33
2023-05-15T06:20:25.893Z,41.12
2023-05-15T06:22:58.495Z,40.49
2023-05-15T06:25:31.383Z,39.84
2023-05-15T06:28:03.499Z,39.61
2023-05-15T06:30:35.874Z,39.42
2023-05-15T06:33:08.275Z,39.26
2023-05-15T06:35:40.821Z,38.82
2023-05-15T06:38:12.995Z,38.52
2023-05-15T06:40:45.651Z,38.48
2023-05-15T06:43:17.905Z,37.54
2023-05-15T06:45:51.056Z,37.75
2023-05-15T06:48:23.549Z,38.02
2023-05-15T06:50:55.834Z,38.04
2023-05-15T06:53:28.471Z,38.42
2023-05-15T06:56:00.713Z,38.00
2023-05-15T06:58:32.954Z,37.78
2023-05-15T07:01:06.829Z,37.83
2023-05-15T07:03:38.880Z,37.76
2023-05-15T07:06:11.527Z,37.30
2023-05-15T07:08:43.751Z,37.29
2023-05-15T07:11:16.125Z,37.24
2023-05-15T07:13:48.797Z,36.47
2023-05-15T07:16:22.149Z,36.32
2023-05-15T07:18:54.801Z,36.39
2023-05-15T07:21:27.737Z,36.00
2023-05-15T07:23:59.897Z,35.92
2023-05-15T07:26:41.017Z,35.62
2023-05-15T07:29:08.663Z,36.11
2023-05-15T07:31:43.476Z,35.13
2023-05-15T07:34:15.647Z,35.30
2023-05-15T07:36:48.046Z,35.52
2023-05-15T07:39:20.550Z,36.24
2023-05-15T07:41:52.983Z,36.23
2023-05-15T07:44:25.405Z,36.75
2023-05-15T07:47:00.133Z,36.49
2023-05-15T07:49:32.570Z,36.62
2023-05-15T07:52:05.372Z,37.29
2023-05-15T07:54:39.598Z,36.82
2023-05-15T07:57:13.562Z,36.16
2023-05-15T07:59:46.057Z,36.76
2023-05-15T08:02:18.670Z,36.48
2023-05-15T08:04:51.193Z,36.54
2023-05-15T08:07:23.359Z,35.98
2023-05-15T08:09:55.453Z,36.04
2023-05-15T08:12:28.175Z,36.24
2023-05-15T08:15:00.438Z,35.59
2023-05-15T08:17:34.254Z,35.30
2023-05-15T08:20:07.896Z,34.94
2023-05-15T08:22:41.464Z,35.24
2023-05-15T08:25:14.210Z,34.99
2023-05-15T08:27:46.576Z,34.96
2023-05-15T08:30:18.842Z,35.86
2023-05-15T08:32:51.674Z,35.06
2023-05-15T08:35:25.085Z,35.01
2023-05-15T08:37:59.379Z,35.04
2023-05-15T08:40:39.123Z,35.12
2023-05-15T08:43:11.207Z,35.05
2023-05-15T08:45:44.391Z,33.58
2023-05-15T08:48:20.726Z,33.75
2023-05-15T08:50:54.005Z,33.34
2023-05-15T08:53:26.418Z,33.01
2023-05-15T08:55:59.586Z,32.53
2023-05-15T08:58:32.591Z,32.52
2023-05-15T09:01:07.045Z,32.40
2023-05-15T09:03:40.109Z,31.34
2023-05-15T09:06:12.814Z,31.68
2023-05-15T09:08:45.797Z,32.15
2023-05-15T09:11:18.839Z,31.80
2023-05-15T09:13:51.789Z,31.18
2023-05-15T09:16:24.352Z,31.58
2023-05-15T09:19:00.364Z,31.56
2023-05-15T09:21:33.838Z,31.64
2023-05-15T09:24:19.435Z,31.22
2023-05-15T09:27:08.510Z,31.51
2023-05-15T09:29:41.524Z,32.08
2023-05-15T09:32:18.723Z,31.78
2023-05-15T09:34:51.816Z,31.84
2023-05-15T09:37:35.305Z,31.29
2023-05-15T09:40:12.059Z,31.19
2023-05-15T09:42:45.872Z,30.64
2023-05-15T09:45:21.895Z,31.70
2023-05-15T09:47:55.027Z,31.35
2023-05-15T09:50:36.464Z,30.79
2023-05-15T09:53:12.267Z,29.79
2023-05-15T09:55:44.843Z,30.16
2023-05-15T09:58:21.019Z,30.02
2023-05-15T10:00:53.708Z,29.76
2023-05-15T10:03:27.071Z,29.45
2023-05-15T10:06:05.079Z,29.10
2023-05-15T10:08:39.057Z,28.30
2023-05-15T10:11:12.568Z,28.24
2023-05-15T10:13:45.562Z,27.54
2023-05-15T10:16:22.738Z,27.35
2023-05-15T10:18:55.526Z,27.59
2023-05-15T10:21:30.042Z,28.08
2023-05-15T10:24:03.729Z,27.83
2023-05-15T10:26:41.457Z,27.81
2023-05-15T10:29:15.861Z,26.20
2023-05-15T10:31:49.211Z,27.04
2023-05-15T10:34:22.117Z,27.99
2023-05-15T10:36:55.583Z,26.02
2023-05-15T10:39:30.216Z,26.42
2023-05-15T10:42:02.032Z,26.43
2023-05-15T10:44:34.240Z,27.92
2023-05-15T10:47:08.486Z,25.53
2023-05-15T10:49:40.355Z,25.97
2023-05-15T10:52:13.026Z,27.55
2023-05-15T10:54:46.316Z,25.49
2023-05-15T10:57:19.104Z,26.25
2023-05-15T10:59:52.501Z,25.98
2023-05-15T11:02:32.089Z,26.84
2023-05-15T11:05:05.479Z,26.05
2023-05-15T11:07:38.121Z,26.19
2023-05-15T11:10:33.072Z,26.47
2023-05-15T11:13:05.709Z,26.04
2023-05-15T11:15:48.608Z,25.29
2023-05-15T11:18:22.174Z,25.05
2023-05-15T11:20:57.492Z,23.66
2023-05-15T11:23:29.748Z,21.15
2023-05-15T11:26:03.983Z,21.96
2023-05-15T11:28:39.244Z,18.43
2023-05-15T11:31:12.206Z,18.35
2023-05-15T11:33:45.565Z,19.24
2023-05-15T11:36:18.640Z,20.13
2023-05-15T11:38:53.860Z,19.62
2023-05-15T11:41:31.191Z,20.23
2023-05-15T11:44:04.109Z,20.43
2023-05-15T11:46:38.264Z,19.55
2023-05-15T11:49:11.811Z,18.85
2023-05-15T11:51:44.038Z,17.17
2023-05-15T11:54:17.413Z,16.09
2023-05-15T11:56:49.862Z,14.30
2023-05-15T11:59:23.051Z,13.57
2023-05-15T12:01:55.790Z,12.49
2023-05-15T12:04:28.583Z,11.93
2023-05-15T12:07:03.217Z,10.20
2023-05-15T12:09:35.912Z,9.48
2023-05-15T12:12:11.647Z,8.67
2023-05-15T12:14:45.327Z,8.18
2023-05-15T12:17:19.815Z,7.45
2023-05-15T12:19:53.339Z,7.04
2023-05-15T12:22:25.836Z,7.07
2023-05-15T12:25:02.143Z,6.53
2023-05-15T12:27:36.072Z,6.18
2023-05-15T12:30:09.338Z,6.33
2023-05-15T12:32:41.990Z,6.68
2023-05-15T12:35:15.274Z,6.64
2023-05-15T12:37:47.856Z,6.78
2023-05-15T12:40:22.712Z,6.38
2023-05-15T12:42:56.614Z,5.85
2023-05-15T12:45:29.319Z,5.52
2023-05-15T12:48:02.592Z,4.85
2023-05-15T12:50:35.367Z,5.40
2023-05-15T12:53:07.506Z,6.66
2023-05-15T12:55:41.694Z,5.81
2023-05-15T12:58:15.960Z,5.56
2023-05-15T13:00:50.243Z,5.28
2023-05-15T13:03:23.516Z,5.19
2023-05-15T13:05:56.242Z,4.94
2023-05-15T13:08:29.414Z,4.87
2023-05-15T13:11:01.309Z,4.85
2023-05-15T13:13:44.282Z,4.58
2023-05-15T13:16:23.733Z,4.71
2023-05-15T13:18:59.497Z,4.31
2023-05-15T13:21:32.505Z,4.34
2023-05-15T13:24:05.121Z,4.25
2023-05-15T13:26:37.465Z,4.39
2023-05-15T13:29:09.942Z,4.47
2023-05-15T13:31:42.996Z,4.45
2023-05-15T13:34:15.487Z,4.40
2023-05-15T13:36:47.993Z,4.52
2023-05-15T13:39:20.277Z,4.81
2023-05-15T13:41:52.653Z,4.64
2023-05-15T13:44:25.207Z,4.71
2023-05-15T13:46:57.718Z,4.77
2023-05-15T13:49:30.284Z,5.02
2023-05-15T13:52:02.919Z,5.13
2023-05-15T13:54:35.251Z,5.14
2023-05-15T13:57:07.961Z,5.25
2023-05-15T13:59:40.430Z,5.33
2023-05-15T14:02:12.949Z,5.51
2023-05-15T14:04:45.134Z,5.53
2023-05-15T14:07:17.487Z,5.66
2023-05-15T14:09:50.648Z,5.66
2023-05-15T14:12:23.364Z,5.88
2023-05-15T14:14:56.291Z,5.83
2023-05-15T14:17:28.954Z,5.85
2023-05-15T14:20:01.620Z,5.87
2023-05-15T14:22:34.634Z,6.15
2023-05-15T14:25:07.523Z,5.45
2023-05-15T14:27:39.412Z,5.70
2023-05-15T14:30:11.870Z,5.46
2023-05-15T14:32:44.148Z,5.62
2023-05-15T14:35:16.881Z,5.95
2023-05-15T14:37:48.995Z,5.79
2023-05-15T14:40:21.154Z,5.92
2023-05-15T14:42:53.708Z,5.81
2023-05-15T14:45:27.290Z,5.52
2023-05-15T14:47:59.439Z,5.67
2023-05-15T14:50:31.645Z,5.57
2023-05-15T14:53:03.763Z,5.80
2023-05-15T14:55:35.849Z,5.81
2023-05-15T14:58:10.001Z,5.94
2023-05-15T15:00:42.453Z,5.93
2023-05-15T15:03:15.046Z,6.11
2023-05-15T15:05:47.808Z,6.02
2023-05-15T15:08:20.786Z,6.25
2023-05-15T15:10:53.408Z,6.45
2023-05-15T15:13:27.589Z,6.64
2023-05-15T15:16:00.060Z,6.92
2023-05-15T15:18:32.417Z,7.53
2023-05-15T15:21:04.766Z,8.76
2023-05-15T15:23:37.132Z,10.23
2023-05-15T15:26:10.092Z,11.77
2023-05-15T15:28:42.506Z,13.35
2023-05-15T15:31:15.593Z,14.67
2023-05-15T15:33:47.818Z,16.56
2023-05-15T15:36:20.490Z,16.53
2023-05-15T15:38:53.391Z,18.02
2023-05-15T15:41:26.767Z,17.99
2023-05-15T15:43:59.236Z,18.87
2023-05-15T15:46:31.833Z,19.04
2023-05-15T15:49:06.801Z,19.42
2023-05-15T15:51:41.258Z,19.86
2023-05-15T15:54:13.952Z,20.84
2023-05-15T15:56:47.714Z,21.61
2023-05-15T15:59:20.234Z,22.01
2023-05-15T16:01:52.891Z,23.16
2023-05-15T16:04:26.470Z,22.00
2023-05-15T16:06:59.434Z,22.19
2023-05-15T16:09:33.103Z,22.83
2023-05-15T16:12:05.748Z,23.46
2023-05-15T16:14:38.285Z,23.85
2023-05-15T16:17:10.713Z,23.51
2023-05-15T16:19:43.298Z,24.02
2023-05-15T16:22:15.617Z,23.79
2023-05-15T16:24:48.426Z,23.82
2023-05-15T16:27:20.880Z,24.26
2023-05-15T16:29:53.236Z,24.56
2023-05-15T16:32:27.727Z,24.55
2023-05-15T16:35:00.114Z,24.86
2023-05-15T16:37:34.192Z,24.81
2023-05-15T16:40:07.367Z,24.82
2023-05-15T16:42:41.364Z,25.07
2023-05-15T16:45:13.933Z,25.08
2023-05-15T16:47:46.054Z,25.80
2023-05-15T16:50:18.267Z,25.58
2023-05-15T16:52:50.919Z,26.20
2023-05-15T16:55:23.837Z,26.83
2023-05-15T16:57:56.082Z,26.60
2023-05-15T17:00:29.006Z,26.34
2023-05-15T17:03:01.447Z,26.67
2023-05-15T17:05:34.213Z,26.94
2023-05-15T17:08:06.999Z,27.39
2023-05-15T17:10:39.174Z,26.93
2023-05-15T17:13:11.730Z,27.08
2023-05-15T17:15:47.325Z,28.14
2023-05-15T17:18:27.190Z,27.58
2023-05-15T17:21:01.159Z,27.88
2023-05-15T17:23:36.875Z,27.79
2023-05-15T17:26:10.736Z,29.43
2023-05-15T17:28:45.093Z,28.85
2023-05-15T17:31:17.532Z,29.28
2023-05-15T17:33:51.245Z,29.54
2023-05-15T17:36:23.496Z,29.90
2023-05-15T17:38:57.112Z,29.55
2023-05-15T17:41:31.115Z,30.18
2023-05-15T17:44:04.801Z,30.05
2023-05-15T17:46:39.779Z,31.44
2023-05-15T17:49:14.025Z,30.71
2023-05-15T17:51:47.326Z,31.57
2023-05-15T17:54:21.251Z,31.00
2023-05-15T17:56:56.057Z,32.29
2023-05-15T17:59:34.221Z,32.46
2023-05-15T18:02:08.096Z,32.88
2023-05-15T18:04:40.616Z,32.66
2023-05-15T18:07:12.691Z,33.33
2023-05-15T18:09:45.038Z,33.04
2023-05-15T18:12:17.256Z,33.65
2023-05-15T18:14:50.629Z,33.76
2023-05-15T18:17:23.264Z,33.80
2023-05-15T18:19:55.675Z,34.12
2023-05-15T18:22:28.645Z,34.09
2023-05-15T18:25:01.949Z,34.78
2023-05-15T18:27:34.754Z,34.56
2023-05-15T18:30:08.508Z,35.16
2023-05-15T18:32:41.548Z,35.38
2023-05-15T18:35:13.618Z,35.72
2023-05-15T18:37:45.939Z,35.84
2023-05-15T18:40:18.659Z,36.15
2023-05-15T18:42:50.862Z,36.18
2023-05-15T18:45:24.332Z,36.61
2023-05-15T18:47:56.925Z,36.68
2023-05-15T18:50:28.993Z,37.44
2023-05-15T18:53:01.111Z,37.46
2023-05-15T18:55:33.248Z,37.61
2023-05-15T18:58:05.928Z,38.31
2023-05-15T19:00:38.976Z,38.59
2023-05-15T19:03:11.676Z,38.58
2023-05-15T19:05:43.770Z,38.75
2023-05-15T19:08:15.845Z,38.60
2023-05-15T19:10:49.914Z,39.27
2023-05-15T19:13:22.034Z,39.27
2023-05-15T19:15:54.549Z,38.47
2023-05-15T19:18:26.748Z,39.37
2023-05-15T19:20:59.427Z,39.64
2023-05-15T19:23:32.240Z,39.34
2023-05-15T19:26:04.518Z,39.22
2023-05-15T19:28:36.927Z,39.76
2023-05-15T19:31:20.213Z,38.86
2023-05-15T19:33:43.281Z,38.89
2023-05-15T19:36:15.677Z,38.65
2023-05-15T19:38:47.954Z,38.36
2023-05-15T19:41:21.256Z,38.24
2023-05-15T19:43:53.604Z,38.27
2023-05-15T19:46:25.726Z,38.65
2023-05-15T19:48:57.842Z,39.50
2023-05-15T19:51:30.115Z,38.86
2023-05-15T19:54:02.334Z,39.36
2023-05-15T19:56:34.473Z,39.71
2023-05-15T19:59:06.631Z,40.04
2023-05-15T20:01:38.737Z,40.53
2023-05-15T20:04:12.525Z,40.58
2023-05-15T20:06:44.753Z,40.81
2023-05-15T20:09:16.825Z,41.24
2023-05-15T20:11:48.860Z,41.79
2023-05-15T20:14:20.811Z,41.88
2023-05-15T20:16:53.126Z,41.72
2023-05-15T20:19:26.244Z,42.19
2023-05-15T20:21:58.952Z,42.52
2023-05-15T20:24:32.373Z,42.95
2023-05-15T20:27:04.444Z,43.06
2023-05-15T20:29:36.463Z,43.21
2023-05-15T20:32:08.741Z,43.38
2023-05-15T20:34:42.720Z,43.25
2023-05-15T20:37:16.399Z,43.73
2023-05-15T20:39:49.065Z,43.75
2023-05-15T20:42:21.823Z,44.17
2023-05-15T20:44:54.204Z,44.62
2023-05-15T20:47:26.285Z,44.51
2023-05-15T20:49:58.520Z,44.56
2023-05-15T20:52:30.785Z,44.85
2023-05-15T20:55:02.964Z,45.40
2023-05-15T20:57:35.475Z,42.75
2023-05-15T21:00:09.174Z,42.43
2023-05-15T21:02:41.402Z,43.61
2023-05-15T21:05:13.846Z,42.94
2023-05-15T21:07:45.820Z,43.90
2023-05-15T21:10:18.072Z,44.20
2023-05-15T21:12:50.449Z,44.48
2023-05-15T21:15:22.622Z,44.78
2023-05-15T21:17:54.710Z,44.95
2023-05-15T21:20:27.470Z,45.77
2023-05-15T21:22:59.897Z,45.84
2023-05-15T21:25:31.962Z,46.06
2023-05-15T21:28:04.654Z,46.50
2023-05-15T21:30:36.959Z,46.58
2023-05-15T21:33:09.447Z,46.73
2023-05-15T21:35:41.551Z,46.73
2023-05-15T21:38:14.279Z,46.83
2023-05-15T21:40:46.531Z,46.93
2023-05-15T21:43:18.896Z,46.93
2023-05-15T21:45:51.466Z,47.26
2023-05-15T21:48:23.651Z,47.37
2023-05-15T21:50:58.870Z,47.14
2023-05-15T21:53:30.999Z,47.44
2023-05-15T21:56:03.833Z,47.46
2023-05-15T21:58:35.849Z,47.60
2023-05-15T22:01:08.023Z,47.97
2023-05-15T22:03:40.340Z,48.07
2023-05-15T22:06:12.860Z,48.21
2023-05-15T22:08:45.090Z,48.13
2023-05-15T22:11:17.336Z,48.13
2023-05-15T22:13:49.380Z,48.16
2023-05-15T22:16:21.918Z,48.19
2023-05-15T22:18:55.166Z,48.55
2023-05-15T22:21:27.165Z,49.00
2023-05-15T22:23:59.305Z,49.22
2023-05-15T22:26:32.028Z,49.21
2023-05-15T22:29:04.143Z,49.01
2023-05-15T22:31:36.282Z,49.36
2023-05-15T22:34:09.070Z,49.37
2023-05-15T22:36:41.292Z,49.78
2023-05-15T22:39:13.563Z,49.99
2023-05-15T22:41:46.294Z,50.10
2023-05-15T22:44:18.838Z,50.05
2023-05-15T22:46:51.254Z,50.05
2023-05-15T22:49:26.560Z,50.61
2023-05-15T22:51:59.661Z,50.48
2023-05-15T22:54:31.833Z,50.84
2023-05-15T22:57:04.225Z,50.95
2023-05-15T22:59:37.288Z,51.37
2023-05-15T23:02:09.356Z,51.38
2023-05-15T23:04:41.518Z,51.75
2023-05-15T23:07:13.706Z,52.09
2023-05-15T23:09:46.110Z,51.87
2023-05-15T23:12:18.481Z,52.08
2023-05-15T23:14:51.023Z,52.10
2023-05-15T23:17:25.032Z,52.40
2023-05-15T23:19:56.805Z,52.27
2023-05-15T23:22:28.894Z,52.30
2023-05-15T23:25:01.015Z,52.62
2023-05-15T23:27:34.970Z,52.43
2023-05-15T23:30:08.281Z,52.71
2023-05-15T23:32:40.417Z,52.97
2023-05-15T23:35:12.654Z,53.42
2023-05-15T23:37:44.927Z,53.26
2023-05-15T23:40:17.245Z,53.42
2023-05-15T23:42:50.692Z,53.77
2023-05-15T23:45:22.756Z,53.61
2023-05-15T23:47:54.964Z,53.59
2023-05-15T23:50:27.360Z,53.32
2023-05-15T23:52:59.988Z,52.37
2023-05-15T23:55:33.281Z,51.59
2023-05-15T23:58:05.244Z,51.55
